Aérodrome :
LOGIN :

S'inscrire | Disclaimer

   EN    FR    IT 

 










Légende :    VFR   VFR Marginal   IFR   IFR Intensif   IFR Très Intensif
Visi : 
Plafond : 
>= 8 km
>= 3000ft
5 à 8 km
1000 à 3000 ft
1500m à 5 km
500 à 1000 ft
800 à 1500m
200 à 500 ft
< 800m
< 200 ft
Symboles :   Orages  Brouillard  Fortes neiges  Fortes précipitations  Vent > 20 kt
SIGMETs :   Divers  Orages  Givrage  Turbulence  Onde Orograph.  Cendres Volcan.







- Altitude de l'aérodrome : 20 ft
- Code IATA : BJA


DAAE - Soummam - Bejaia

DERNIER METAR :
  • 161700Z 10011KT 6000 FEW020 FEW023TCU 28/24 Q1015

METARs EXPIRÉS :
  • 161600Z 12004KT 6000 FEW020 FEW023TCU 30/25 Q1015
  • 161500Z 12009KT 6000 FEW020 29/25 Q1015

TAF TAF DAAE
Valide du 16 à 12h jusqu'au 17 à 12h UTC


161100Z 1612/1712 33014KT 7000 FEW020
TEMPO 1612/1621 28015G30KT FEW030CB
PROB40
TEMPO 1613/1620 4000 -TSRA BKN030
PROB40
TEMPO 1622/1710 30015G25KT 5000 -TSRA FEW030CB BKN030
Pas de NOTAMs connus pour ce terrain.
2 SIGMETs publiés pour la FIR Alger (DAAA) :
 
Orages noyés dans la masse
DAAA SIGMET 3 VALID 161615/162015 DAMM
DAAA ALGIERS FIR ISOL EMBD TS OBS WI N3411 E00359 - N3218 W00110 - N3334 W00140 - N3430 E00227 - N3411 E00359 TOP FL380 MOV MOV NE INTSF=
Orages noyés dans la masse
DAAA SIGMET 2 VALID 161615/162015 DAMM
DAAA ALGIERS FIR ISOL EMBD TS OBS WI N3609 E00812 - N3439 E00807 - N3434 E00643 - N3600 E00430 - N3609 E00812 TOP FL340 MOV STNR INTSF=



MET'MAP, la Météo Aéronautique d'un coup d'oeil ! - Copyright ORBIFLY Décembre 2007 - Disclaimer

ORBIFLY MET'MAP TEAM :

Programmation & Développement : Alexandra Zaïnal
Conception & Développement : Baudouin d'Aumeries
Co-Programmation & Développement : Marc-Olivier Méhu
Soutien technique & logistique : Manuel Goepfert

Contact : metmap@orbifly.com




SOURCES & CREDITS :

   NOAA